Latest Weather Observations for Samuel Hill

IDQ60801

Issued at 4:35 pm EST Saturday 25 October 2014 (issued every 30 minutes, with the page automatically refreshed every 10 minutes)

About weather observations | Map of weather stations | Latest weather observations for QLD | Other Formats
Station Details ID: 033308 Name: SAMUEL HILL AERO Lat: -22.74 Lon: 150.66 Height: 31.0 m
Data from the previous 72 hours. | See also: Recent months at Samuel Hill
Date/Time
EST
Temp
°C
App
Temp
°C
Dew
Point
Rel
Hum
%
Delta-T
°C
Wind Press
QNH
hPa
Press
MSL
hPa
Rain
since 9 am
mm
Dir
 
Spd
km/h
Gust
km/h
Spd
kts
Gust
kts
25/04:30pm 25.3 24.3 14.7 51 6.3 ENE 13 20 7 11 1017.1 1017.0 0.0
25/04:00pm 25.7 24.6 14.2 49 6.8 E 13 19 7 10 1017.0 1016.9 0.0
25/03:30pm 26.2 24.6 14.0 47 7.2 E 15 20 8 11 1016.9 1016.8 0.0
25/03:00pm 26.5 24.9 13.9 45 7.5 E 15 22 8 12 1016.9 1016.8 0.0
25/02:30pm 27.3 25.8 14.3 45 7.8 ENE 15 22 8 12 1017.1 1017.0 0.0
25/02:00pm 27.3 26.3 14.7 46 7.6 E 13 22 7 12 1017.4 1017.3 0.0
25/01:30pm 27.1 24.9 14.5 46 7.6 E 19 22 10 12 1017.7 1017.6 0.0
25/01:00pm 27.8 27.3 15.8 48 7.4 ESE 13 22 7 12 1017.9 1017.8 0.0
25/12:30pm 27.6 26.7 14.9 45 7.7 E 13 22 7 12 1018.4 1018.3 0.0
25/12:00pm 28.1 27.8 16.4 49 7.3 NE 13 26 7 14 1018.9 1018.8 0.0
25/11:30am 27.8 26.9 15.8 48 7.4 SE 15 20 8 11 1019.5 1019.4 0.0
25/11:00am 27.4 27.1 14.4 45 7.8 NNE 9 17 5 9 1019.9 1019.8 0.0
25/10:30am 26.9 26.1 15.0 48 7.2 E 13 20 7 11 1020.4 1020.3 0.0
25/10:00am 27.1 26.7 15.1 47 7.3 ENE 11 20 6 11 1020.9 1020.8 0.0
25/09:30am 24.7 23.8 13.6 50 6.5 NE 11 19 6 10 1021.1 1021.0 0.0
25/09:00am 25.4 25.5 15.4 54 6.0 ENE 9 17 5 9 1021.2 1021.1 0.0
25/08:30am 24.9 24.9 15.2 54 5.8 E 9 17 5 9 1021.1 1021.0 0.0
25/08:00am 23.9 24.3 15.4 59 5.1 ENE 7 11 4 6 1021.0 1020.9 0.0
25/07:30am 21.7 22.6 16.2 71 3.3 SSE 6 9 3 5 1020.8 1020.7 0.0
25/07:00am 18.9 20.7 15.6 81 1.9 CALM 0 4 0 2 1020.7 1020.6 0.0
25/06:30am 15.8 16.9 13.6 87 1.2 CALM 0 0 0 0 1020.3 1020.2 0.0
25/06:00am 12.4 12.8 11.3 93 0.6 CALM 0 0 0 0 1020.0 1019.9 0.0
25/05:30am 10.6 10.5 9.4 92 0.6 CALM 0 0 0 0 1019.8 1019.7 0.0
25/05:00am 10.8 10.7 9.6 92 0.6 CALM 0 0 0 0 1019.6 1019.5 0.0
25/04:30am 11.1 11.1 9.9 92 0.6 CALM 0 0 0 0 1019.5 1019.4 0.0
25/04:00am 11.0 10.9 9.6 91 0.7 CALM 0 0 0 0 1019.5 1019.4 0.0
25/03:30am 11.2 11.2 9.8 91 0.7 CALM 0 0 0 0 1019.5 1019.4 0.0
25/03:00am 11.8 12.0 10.4 91 0.7 CALM 0 0 0 0 1019.4 1019.3 0.0
25/02:30am 11.6 11.7 10.2 91 0.7 WNW 0 0 0 0 1019.3 1019.2 0.0
25/02:00am 12.1 12.3 10.5 90 0.8 CALM 0 0 0 0 1019.4 1019.3 0.0
25/01:30am 12.2 12.4 10.6 90 0.8 CALM 0 0 0 0 1020.0 1019.9 0.0
25/01:00am 12.5 12.8 10.9 90 0.8 CALM 0 0 0 0 1020.4 1020.3 0.0
25/12:30am 12.7 13.1 11.1 90 0.8 CALM 0 0 0 0 1020.7 1020.6 0.0
25/12:00am 13.5 14.1 11.9 90 0.9 W 0 0 0 0 1020.9 1020.8 0.0
 
Date/Time
EST
Temp
°C
App
Temp
°C
Dew
Point
Rel
Hum
%
Delta-T
°C
Wind Press
QNH
hPa
Press
MSL
hPa
Rain
since 9 am
mm
Dir
 
Spd
km/h
Gust
km/h
Spd
kts
Gust
kts
24/11:30pm 13.5 14.0 11.7 89 1.0 CALM 0 0 0 0 1021.2 1021.1 0.0
24/11:00pm 13.6 14.2 11.8 89 1.0 CALM 0 0 0 0 1021.3 1021.2 0.0
24/10:30pm 14.4 15.2 12.6 89 1.0 CALM 0 0 0 0 1021.7 1021.6 0.0
24/10:00pm 14.2 14.9 12.2 88 1.1 CALM 0 0 0 0 1021.7 1021.6 0.0
24/09:30pm 14.6 15.4 12.5 87 1.1 CALM 0 2 0 1 1021.6 1021.5 0.0
24/09:00pm 15.1 15.9 12.6 85 1.4 CALM 0 0 0 0 1021.5 1021.4 0.0
24/08:30pm 15.5 16.4 12.8 84 1.5 CALM 0 0 0 0 1021.3 1021.2 0.0
24/08:00pm 16.2 17.2 13.1 82 1.7 CALM 0 0 0 0 1021.1 1021.0 0.0
24/07:30pm 16.8 17.8 13.3 80 2.0 CALM 0 0 0 0 1020.6 1020.5 0.0
24/07:00pm 18.5 19.8 14.0 75 2.6 CALM 0 0 0 0 1020.4 1020.3 0.0
24/06:30pm 20.2 21.7 14.6 70 3.3 CALM 0 0 0 0 1019.9 1019.8 0.0
24/06:00pm 21.2 21.0 14.6 66 3.9 E 9 15 5 8 1019.5 1019.4 0.0
24/05:30pm 22.5 21.7 14.1 59 4.9 E 11 17 6 9 1019.1 1019.0 0.0
24/05:00pm 23.3 21.9 13.5 54 5.7 E 13 22 7 12 1018.7 1018.6 0.0
24/04:30pm 23.7 21.5 13.3 52 6.0 ESE 17 24 9 13 1018.6 1018.5 0.0
24/04:00pm 24.5 22.7 13.4 50 6.5 ESE 15 24 8 13 1018.6 1018.5 0.0
24/03:30pm 25.8 23.9 13.0 45 7.5 E 15 24 8 13 1018.6 1018.5 0.0
24/03:00pm 25.7 23.6 12.5 44 7.6 E 15 26 8 14 1018.7 1018.6 0.0
24/02:30pm 25.6 23.4 12.1 43 7.7 E 15 24 8 13 1019.0 1018.9 0.0
24/02:00pm 25.6 23.3 13.1 46 7.3 SE 17 26 9 14 1019.3 1019.2 0.0
24/01:30pm 26.1 24.2 12.9 44 7.7 SE 15 22 8 12 1019.6 1019.5 0.0
24/01:00pm 26.0 23.8 13.2 45 7.5 ESE 17 32 9 17 1019.8 1019.7 0.0
24/12:30pm 26.8 25.4 13.5 44 7.9 ESE 13 24 7 13 1020.1 1020.0 0.0
24/12:00pm 25.7 23.2 12.2 43 7.7 SE 17 24 9 13 1020.4 1020.3 0.0
24/11:30am 25.7 24.0 12.5 44 7.6 SE 13 24 7 13 1020.7 1020.6 0.0
24/11:00am 25.3 23.4 12.9 46 7.2 SE 15 28 8 15 1021.0 1020.9 0.0
24/10:30am 25.4 24.4 13.3 47 7.1 SSE 11 17 6 9 1021.2 1021.1 0.0
24/10:00am 25.0 23.5 13.2 48 6.9 ESE 13 28 7 15 1021.3 1021.2 0.0
24/09:30am 24.9 23.5 13.5 49 6.7 E 13 22 7 12 1021.3 1021.2 0.0
24/09:00am 24.8 24.1 14.3 52 6.2 NE 11 20 6 11 1021.3 1021.2 0.0
24/08:30am 24.0 24.4 15.2 58 5.3 ESE 7 15 4 8 1021.3 1021.2 0.0
24/08:00am 22.1 22.6 15.0 64 4.2 E 6 11 3 6 1021.2 1021.1 0.0
24/07:30am 20.5 21.8 15.1 71 3.2 S 2 6 1 3 1021.0 1020.9 0.0
24/07:00am 17.2 18.5 14.1 82 1.8 CALM 0 6 0 3 1021.1 1021.0 0.0
24/06:30am 14.2 14.6 12.6 90 0.9 ESE 2 6 1 3 1020.8 1020.7 0.0
24/06:00am 10.8 10.8 9.7 93 0.6 CALM 0 0 0 0 1020.3 1020.2 0.0
24/05:30am 9.1 8.6 8.0 93 0.5 CALM 0 0 0 0 1020.2 1020.1 0.0
24/05:00am 9.0 8.5 7.8 92 0.6 CALM 0 0 0 0 1019.7 1019.6 0.0
24/04:30am 9.3 8.9 8.1 92 0.6 CALM 0 0 0 0 1019.5 1019.4 0.0
24/04:00am 9.3 8.9 8.1 92 0.6 CALM 0 0 0 0 1019.4 1019.3 0.0
24/03:30am 9.3 8.9 8.1 92 0.6 CALM 0 0 0 0 1019.4 1019.3 0.0
24/03:00am 9.7 9.4 8.5 92 0.6 CALM 0 0 0 0 1019.3 1019.2 0.0
24/02:30am 10.0 9.7 8.8 92 0.6 CALM 0 0 0 0 1019.2 1019.1 0.0
24/02:00am 10.3 10.1 8.9 91 0.7 CALM 0 0 0 0 1019.4 1019.3 0.0
24/01:30am 10.6 10.4 9.2 91 0.7 CALM 0 0 0 0 1020.1 1020.0 0.0
24/01:00am 11.0 10.9 9.6 91 0.7 CALM 0 0 0 0 1020.6 1020.5 0.0
24/12:30am 11.5 11.6 10.2 92 0.7 CALM 0 0 0 0 1020.7 1020.6 0.0
24/12:00am 11.4 11.4 9.8 90 0.8 CALM 0 4 0 2 1020.7 1020.6 0.0
 
Date/Time
EST
Temp
°C
App
Temp
°C
Dew
Point
Rel
Hum
%
Delta-T
°C
Wind Press
QNH
hPa
Press
MSL
hPa
Rain
since 9 am
mm
Dir
 
Spd
km/h
Gust
km/h
Spd
kts
Gust
kts
23/11:30pm 12.4 12.8 11.1 92 0.7 CALM 0 0 0 0 1020.8 1020.7 0.0
23/11:00pm 12.1 12.3 10.5 90 0.8 CALM 0 0 0 0 1021.1 1021.0 0.0
23/10:30pm 12.5 12.4 10.9 90 0.8 W 2 6 1 3 1021.2 1021.1 0.0
23/10:00pm 12.9 13.3 11.1 89 0.9 CALM 0 0 0 0 1021.1 1021.0 0.0
23/09:30pm 13.3 13.7 11.4 88 1.0 CALM 0 0 0 0 1020.8 1020.7 0.0
23/09:00pm 14.2 14.9 12.1 87 1.1 CALM 0 0 0 0 1020.8 1020.7 0.0
23/08:30pm 14.5 15.1 12.0 85 1.4 CALM 0 6 0 3 1020.4 1020.3 0.0
23/08:00pm 15.7 16.6 13.0 84 1.5 CALM 0 0 0 0 1019.9 1019.8 0.0
23/07:30pm 16.5 17.3 12.7 78 2.1 CALM 0 6 0 3 1019.5 1019.4 0.0
23/07:00pm 17.9 18.4 12.8 72 2.8 E 2 6 1 3 1019.1 1019.0 0.0
23/06:30pm 19.6 19.2 14.2 71 3.1 E 9 11 5 6 1018.9 1018.8 0.0
23/06:00pm 21.0 20.3 14.4 66 3.8 E 11 17 6 9 1018.7 1018.6 0.0
23/05:30pm 22.2 21.5 14.3 61 4.6 ENE 11 22 6 12 1018.5 1018.4 0.0
23/05:00pm 23.0 21.9 14.3 58 5.1 ENE 13 20 7 11 1018.2 1018.1 0.0
23/04:30pm 23.7 21.8 14.1 55 5.6 ENE 17 24 9 13 1017.9 1017.8 0.0
23/04:00pm 24.6 24.3 14.4 53 6.0 E 9 17 5 9 1017.7 1017.6 0.0
23/03:30pm 23.9 21.7 13.4 51 6.1 ESE 17 26 9 14 1017.9 1017.8 0.0
23/03:00pm 24.3 22.5 14.4 54 5.9 ESE 17 30 9 16 1018.1 1018.0 0.0
23/02:30pm 25.2 23.5 14.6 51 6.3 E 17 26 9 14 1017.9 1017.8 0.0
23/02:00pm 25.3 23.0 12.9 46 7.2 ESE 17 28 9 15 1018.1 1018.0 0.0
23/01:30pm 24.4 21.4 13.6 51 6.3 SSE 22 28 12 15 1018.4 1018.3 0.0
23/01:00pm 25.0 22.3 12.9 47 7.0 ESE 19 28 10 15 1018.8 1018.7 0.0
23/12:30pm 25.4 23.6 14.5 51 6.5 E 17 30 9 16 1019.2 1019.1 0.0
23/12:00pm 24.8 22.5 14.0 51 6.4 E 19 30 10 16 1019.5 1019.4 0.0
23/11:30am 25.3 23.4 14.1 50 6.6 SE 17 26 9 14 1019.8 1019.7 0.0
23/11:00am 24.5 21.9 13.7 51 6.3 ESE 20 37 11 20 1020.2 1020.1 0.0
23/10:30am 24.2 22.2 14.0 53 6.0 E 17 30 9 16 1020.6 1020.5 0.0
23/10:00am 24.1 21.1 12.7 49 6.5 ESE 20 30 11 16 1020.8 1020.7 0.0
23/09:30am 23.6 21.1 13.5 53 5.9 ESE 19 32 10 17 1021.0 1020.9 0.0
23/09:00am 23.7 21.5 13.3 52 6.0 ESE 17 28 9 15 1021.1 1021.0 0.0
23/08:30am 22.9 20.4 13.4 55 5.5 ESE 19 35 10 19 1021.1 1021.0 0.0
23/08:00am 22.7 20.4 14.0 58 5.1 SE 19 28 10 15 1021.0 1020.9 0.0
23/07:30am 21.8 21.6 14.7 64 4.2 SSE 9 13 5 7 1020.9 1020.8 0.0
23/07:00am 19.7 19.7 14.3 71 3.1 SSE 7 11 4 6 1020.7 1020.6 0.0
23/06:30am 16.9 18.3 14.4 85 1.4 CALM 0 0 0 0 1020.7 1020.6 0.0
23/06:00am 14.1 15.0 13.0 93 0.6 CALM 0 0 0 0 1020.5 1020.4 0.0
23/05:30am 12.2 12.5 10.8 91 0.7 CALM 0 6 0 3 1020.2 1020.1 0.0
23/05:00am 12.6 12.0 11.7 94 0.5 S 6 11 3 6 1020.1 1020.0 0.0
23/04:30am 11.7 11.1 10.3 91 0.7 SSW 4 7 2 4 1019.9 1019.8 0.0
23/04:00am 11.9 12.0 10.3 90 0.8 CALM 0 0 0 0 1019.8 1019.7 0.0
23/03:30am 12.6 13.0 11.2 91 0.7 CALM 0 0 0 0 1019.8 1019.7 0.0
23/03:00am 12.8 13.2 11.4 91 0.7 CALM 0 0 0 0 1019.9 1019.8 0.0
23/02:30am 12.8 13.1 11.0 89 0.9 CALM 0 2 0 1 1020.1 1020.0 0.0
23/02:00am 13.2 13.6 11.3 88 1.0 CALM 0 0 0 0 1020.2 1020.1 0.0
23/01:30am 14.5 15.4 13.0 91 0.8 CALM 0 0 0 0 1020.6 1020.5 0.0
23/01:00am 14.6 15.4 12.5 87 1.1 CALM 0 0 0 0 1020.9 1020.8 0.0
23/12:30am 15.5 16.5 13.2 86 1.3 CALM 0 4 0 2 1021.3 1021.2 0.0
23/12:00am 16.2 16.1 14.0 87 1.2 W 7 9 4 5 1021.5 1021.4 0.0
 
Date/Time
EST
Temp
°C
App
Temp
°C
Dew
Point
Rel
Hum
%
Delta-T
°C
Wind Press
QNH
hPa
Press
MSL
hPa
Rain
since 9 am
mm
Dir
 
Spd
km/h
Gust
km/h
Spd
kts
Gust
kts
22/11:30pm 16.5 16.5 14.2 86 1.3 W 7 9 4 5 1021.7 1021.6 0.0
22/11:00pm 18.2 18.4 14.1 77 2.3 SE 6 9 3 5 1021.7 1021.6 0.0
22/10:30pm 19.3 19.4 15.4 78 2.3 ESE 9 15 5 8 1021.7 1021.6 0.0
22/10:00pm 19.7 19.8 15.4 76 2.5 ESE 9 13 5 7 1021.6 1021.5 0.0
22/09:30pm 19.9 19.5 15.3 75 2.7 ESE 11 19 6 10 1021.4 1021.3 0.0
22/09:00pm 19.5 19.6 15.6 78 2.3 ESE 9 15 5 8 1021.4 1021.3 0.0
22/08:30pm 19.4 19.2 14.6 74 2.8 ESE 9 17 5 9 1021.2 1021.1 0.0
22/08:00pm 19.5 19.8 15.0 75 2.6 SE 7 11 4 6 1021.0 1020.9 0.0
22/07:30pm 19.4 19.4 14.2 72 3.0 SE 7 13 4 7 1020.9 1020.8 0.0
22/07:00pm 20.4 20.1 14.5 69 3.4 ESE 9 17 5 9 1020.7 1020.6 0.0
22/06:30pm 20.7 19.9 13.9 65 3.9 E 11 19 6 10 1020.6 1020.5 0.0
22/06:00pm 21.2 19.8 13.4 61 4.5 E 13 20 7 11 1020.3 1020.2 0.0
22/05:30pm 22.1 19.7 12.6 55 5.4 E 17 28 9 15 1020.2 1020.1 0.0
22/05:00pm 22.5 18.4 12.7 54 5.6 ESE 26 41 14 22 1020.0 1019.9 0.0

Other Formats:

Comma delimited format used in spreadsheet applications
http://www.bom.gov.au/fwo/IDQ60801/IDQ60801.94370.axf

JavaScript Object Notation format (JSON) in row-major order
http://www.bom.gov.au/fwo/IDQ60801/IDQ60801.94370.json